sensor_id;sensor_type;location;lat;lon;timestamp;P1;durP1;ratioP1;P2;durP2;ratioP2
53151;SDS011;39234;53.158;6.322;2023-02-17T00:00:46;59.72;;;27.60;;
53151;SDS011;39234;53.158;6.322;2023-02-17T00:03:11;61.63;;;27.67;;
53151;SDS011;39234;53.158;6.322;2023-02-17T00:05:40;63.75;;;28.92;;
53151;SDS011;39234;53.158;6.322;2023-02-17T00:08:05;58.67;;;28.95;;
53151;SDS011;39234;53.158;6.322;2023-02-17T00:10:31;61.08;;;28.42;;
53151;SDS011;39234;53.158;6.322;2023-02-17T00:12:57;61.10;;;30.42;;
53151;SDS011;39234;53.158;6.322;2023-02-17T00:15:23;66.95;;;30.67;;
53151;SDS011;39234;53.158;6.322;2023-02-17T00:17:48;63.70;;;31.75;;
53151;SDS011;39234;53.158;6.322;2023-02-17T00:20:14;69.68;;;32.42;;
53151;SDS011;39234;53.158;6.322;2023-02-17T00:22:40;82.78;;;35.63;;
53151;SDS011;39234;53.158;6.322;2023-02-17T00:25:05;74.63;;;34.10;;
53151;SDS011;39234;53.158;6.322;2023-02-17T00:27:31;74.72;;;35.30;;
53151;SDS011;39234;53.158;6.322;2023-02-17T00:29:57;76.65;;;35.30;;
53151;SDS011;39234;53.158;6.322;2023-02-17T00:32:22;80.20;;;35.88;;
53151;SDS011;39234;53.158;6.322;2023-02-17T00:34:50;86.43;;;38.05;;
53151;SDS011;39234;53.158;6.322;2023-02-17T00:37:16;83.35;;;37.30;;
53151;SDS011;39234;53.158;6.322;2023-02-17T00:39:42;84.18;;;37.38;;
53151;SDS011;39234;53.158;6.322;2023-02-17T00:42:08;89.68;;;39.05;;
53151;SDS011;39234;53.158;6.322;2023-02-17T00:44:33;88.38;;;39.47;;
53151;SDS011;39234;53.158;6.322;2023-02-17T00:46:59;99.10;;;41.53;;
53151;SDS011;39234;53.158;6.322;2023-02-17T00:49:25;88.97;;;40.13;;
53151;SDS011;39234;53.158;6.322;2023-02-17T00:51:51;93.20;;;42.38;;
53151;SDS011;39234;53.158;6.322;2023-02-17T00:54:17;100.53;;;43.35;;
53151;SDS011;39234;53.158;6.322;2023-02-17T00:56:43;95.95;;;43.10;;
53151;SDS011;39234;53.158;6.322;2023-02-17T00:59:10;103.97;;;40.95;;
53151;SDS011;39234;53.158;6.322;2023-02-17T01:01:36;90.63;;;42.88;;
53151;SDS011;39234;53.158;6.322;2023-02-17T01:04:02;90.72;;;43.45;;
53151;SDS011;39234;53.158;6.322;2023-02-17T01:06:32;89.20;;;43.10;;
53151;SDS011;39234;53.158;6.322;2023-02-17T01:09:02;91.28;;;42.67;;
53151;SDS011;39234;53.158;6.322;2023-02-17T01:11:30;102.15;;;43.45;;
53151;SDS011;39234;53.158;6.322;2023-02-17T01:13:56;91.07;;;43.42;;
53151;SDS011;39234;53.158;6.322;2023-02-17T01:16:25;97.32;;;44.85;;
53151;SDS011;39234;53.158;6.322;2023-02-17T01:18:52;83.15;;;41.03;;
53151;SDS011;39234;53.158;6.322;2023-02-17T01:21:19;90.88;;;41.85;;
53151;SDS011;39234;53.158;6.322;2023-02-17T01:23:50;76.07;;;37.42;;
53151;SDS011;39234;53.158;6.322;2023-02-17T01:26:18;85.43;;;39.80;;
53151;SDS011;39234;53.158;6.322;2023-02-17T01:28:46;79.60;;;40.55;;
53151;SDS011;39234;53.158;6.322;2023-02-17T01:31:12;77.75;;;39.22;;
53151;SDS011;39234;53.158;6.322;2023-02-17T01:33:38;76.13;;;39.30;;
53151;SDS011;39234;53.158;6.322;2023-02-17T01:36:05;89.47;;;39.63;;
53151;SDS011;39234;53.158;6.322;2023-02-17T01:38:33;73.95;;;38.70;;
53151;SDS011;39234;53.158;6.322;2023-02-17T01:41:00;70.78;;;37.80;;
53151;SDS011;39234;53.158;6.322;2023-02-17T01:43:26;78.20;;;39.88;;
53151;SDS011;39234;53.158;6.322;2023-02-17T01:45:55;82.70;;;39.33;;
53151;SDS011;39234;53.158;6.322;2023-02-17T01:48:23;67.18;;;36.20;;
53151;SDS011;39234;53.158;6.322;2023-02-17T01:53:30;72.55;;;37.30;;
53151;SDS011;39234;53.158;6.322;2023-02-17T01:56:01;68.20;;;37.40;;
53151;SDS011;39234;53.158;6.322;2023-02-17T01:58:27;72.18;;;38.88;;
53151;SDS011;39234;53.158;6.322;2023-02-17T02:00:54;76.97;;;40.00;;
53151;SDS011;39234;53.158;6.322;2023-02-17T02:03:22;67.68;;;38.20;;
53151;SDS011;39234;53.158;6.322;2023-02-17T02:05:48;71.70;;;38.22;;
53151;SDS011;39234;53.158;6.322;2023-02-17T02:08:13;76.38;;;38.97;;
53151;SDS011;39234;53.158;6.322;2023-02-17T02:10:39;64.15;;;36.08;;
53151;SDS011;39234;53.158;6.322;2023-02-17T02:13:05;74.57;;;35.95;;
53151;SDS011;39234;53.158;6.322;2023-02-17T02:18:54;62.67;;;35.03;;
53151;SDS011;39234;53.158;6.322;2023-02-17T02:27:02;67.50;;;34.25;;
53151;SDS011;39234;53.158;6.322;2023-02-17T02:30:10;67.57;;;33.25;;
53151;SDS011;39234;53.158;6.322;2023-02-17T02:35:41;67.40;;;35.97;;
53151;SDS011;39234;53.158;6.322;2023-02-17T02:41:08;65.88;;;36.75;;
53151;SDS011;39234;53.158;6.322;2023-02-17T02:43:38;59.63;;;33.88;;
53151;SDS011;39234;53.158;6.322;2023-02-17T02:46:06;65.47;;;35.78;;
53151;SDS011;39234;53.158;6.322;2023-02-17T02:48:31;68.32;;;33.90;;
53151;SDS011;39234;53.158;6.322;2023-02-17T03:02:18;65.18;;;34.33;;
53151;SDS011;39234;53.158;6.322;2023-02-17T03:05:03;64.93;;;34.47;;
53151;SDS011;39234;53.158;6.322;2023-02-17T03:07:55;62.88;;;34.00;;
53151;SDS011;39234;53.158;6.322;2023-02-17T03:10:28;66.45;;;34.80;;
53151;SDS011;39234;53.158;6.322;2023-02-17T03:12:54;59.90;;;34.42;;
53151;SDS011;39234;53.158;6.322;2023-02-17T03:15:31;67.00;;;34.60;;
53151;SDS011;39234;53.158;6.322;2023-02-17T03:17:59;72.40;;;36.67;;
53151;SDS011;39234;53.158;6.322;2023-02-17T03:20:29;72.45;;;36.25;;
53151;SDS011;39234;53.158;6.322;2023-02-17T03:23:00;67.30;;;34.80;;
53151;SDS011;39234;53.158;6.322;2023-02-17T03:25:25;71.32;;;37.60;;
53151;SDS011;39234;53.158;6.322;2023-02-17T03:27:51;59.45;;;33.03;;
53151;SDS011;39234;53.158;6.322;2023-02-17T03:30:17;60.13;;;35.13;;
53151;SDS011;39234;53.158;6.322;2023-02-17T03:32:43;66.53;;;35.92;;
53151;SDS011;39234;53.158;6.322;2023-02-17T03:35:09;59.65;;;33.70;;
53151;SDS011;39234;53.158;6.322;2023-02-17T03:37:35;69.57;;;35.05;;
53151;SDS011;39234;53.158;6.322;2023-02-17T03:40:00;63.45;;;38.00;;
53151;SDS011;39234;53.158;6.322;2023-02-17T03:42:26;62.10;;;34.30;;
53151;SDS011;39234;53.158;6.322;2023-02-17T03:44:52;71.65;;;37.78;;
53151;SDS011;39234;53.158;6.322;2023-02-17T03:47:18;65.47;;;34.90;;
53151;SDS011;39234;53.158;6.322;2023-02-17T03:49:44;62.63;;;34.83;;
53151;SDS011;39234;53.158;6.322;2023-02-17T03:52:09;58.40;;;32.90;;
53151;SDS011;39234;53.158;6.322;2023-02-17T03:54:35;57.13;;;34.30;;
53151;SDS011;39234;53.158;6.322;2023-02-17T03:57:01;59.28;;;33.97;;
53151;SDS011;39234;53.158;6.322;2023-02-17T03:59:28;55.05;;;35.03;;
53151;SDS011;39234;53.158;6.322;2023-02-17T04:01:54;56.28;;;33.72;;
53151;SDS011;39234;53.158;6.322;2023-02-17T04:04:20;61.85;;;36.15;;
53151;SDS011;39234;53.158;6.322;2023-02-17T04:06:45;58.33;;;35.65;;
53151;SDS011;39234;53.158;6.322;2023-02-17T04:09:11;62.95;;;33.85;;
53151;SDS011;39234;53.158;6.322;2023-02-17T04:11:37;59.63;;;34.70;;
53151;SDS011;39234;53.158;6.322;2023-02-17T04:14:03;58.45;;;33.05;;
53151;SDS011;39234;53.158;6.322;2023-02-17T04:16:29;52.78;;;32.08;;
53151;SDS011;39234;53.158;6.322;2023-02-17T04:18:54;57.88;;;32.05;;
53151;SDS011;39234;53.158;6.322;2023-02-17T04:21:20;58.28;;;32.65;;
53151;SDS011;39234;53.158;6.322;2023-02-17T04:23:46;63.10;;;33.85;;
53151;SDS011;39234;53.158;6.322;2023-02-17T04:26:12;52.25;;;29.60;;
53151;SDS011;39234;53.158;6.322;2023-02-17T04:28:38;56.13;;;31.00;;
53151;SDS011;39234;53.158;6.322;2023-02-17T04:31:05;57.05;;;31.45;;
53151;SDS011;39234;53.158;6.322;2023-02-17T04:33:31;57.42;;;31.05;;
53151;SDS011;39234;53.158;6.322;2023-02-17T04:35:57;62.22;;;31.15;;
53151;SDS011;39234;53.158;6.322;2023-02-17T04:38:25;63.15;;;30.92;;
53151;SDS011;39234;53.158;6.322;2023-02-17T04:40:55;54.90;;;30.25;;
53151;SDS011;39234;53.158;6.322;2023-02-17T04:43:21;61.83;;;30.30;;
53151;SDS011;39234;53.158;6.322;2023-02-17T04:45:48;55.72;;;29.15;;
53151;SDS011;39234;53.158;6.322;2023-02-17T04:48:14;59.95;;;29.58;;
53151;SDS011;39234;53.158;6.322;2023-02-17T04:50:40;53.25;;;29.90;;
53151;SDS011;39234;53.158;6.322;2023-02-17T04:53:06;53.95;;;28.45;;
53151;SDS011;39234;53.158;6.322;2023-02-17T04:55:32;56.50;;;28.02;;
53151;SDS011;39234;53.158;6.322;2023-02-17T04:57:58;62.08;;;29.10;;
53151;SDS011;39234;53.158;6.322;2023-02-17T05:00:24;59.22;;;29.05;;
53151;SDS011;39234;53.158;6.322;2023-02-17T05:02:49;53.97;;;28.10;;
53151;SDS011;39234;53.158;6.322;2023-02-17T05:05:15;55.78;;;30.20;;
53151;SDS011;39234;53.158;6.322;2023-02-17T05:07:43;56.67;;;29.63;;
53151;SDS011;39234;53.158;6.322;2023-02-17T05:10:10;55.90;;;30.42;;
53151;SDS011;39234;53.158;6.322;2023-02-17T05:12:37;58.83;;;31.30;;
53151;SDS011;39234;53.158;6.322;2023-02-17T05:15:04;59.97;;;30.33;;
53151;SDS011;39234;53.158;6.322;2023-02-17T05:17:30;62.50;;;29.25;;
53151;SDS011;39234;53.158;6.322;2023-02-17T05:19:56;58.30;;;30.10;;
53151;SDS011;39234;53.158;6.322;2023-02-17T05:22:22;63.85;;;31.65;;
53151;SDS011;39234;53.158;6.322;2023-02-17T05:24:48;66.25;;;30.38;;
53151;SDS011;39234;53.158;6.322;2023-02-17T05:27:13;55.75;;;30.23;;
53151;SDS011;39234;53.158;6.322;2023-02-17T05:29:39;57.65;;;30.45;;
53151;SDS011;39234;53.158;6.322;2023-02-17T05:32:05;53.25;;;28.15;;
53151;SDS011;39234;53.158;6.322;2023-02-17T05:34:31;63.30;;;31.20;;
53151;SDS011;39234;53.158;6.322;2023-02-17T05:36:57;57.85;;;29.65;;
53151;SDS011;39234;53.158;6.322;2023-02-17T05:39:22;57.15;;;29.10;;
53151;SDS011;39234;53.158;6.322;2023-02-17T05:41:48;55.47;;;29.33;;
53151;SDS011;39234;53.158;6.322;2023-02-17T05:44:14;65.00;;;32.25;;
53151;SDS011;39234;53.158;6.322;2023-02-17T05:46:40;58.47;;;29.27;;
53151;SDS011;39234;53.158;6.322;2023-02-17T05:49:06;64.90;;;30.30;;
53151;SDS011;39234;53.158;6.322;2023-02-17T05:51:31;68.03;;;30.23;;
53151;SDS011;39234;53.158;6.322;2023-02-17T05:53:57;65.88;;;31.60;;
53151;SDS011;39234;53.158;6.322;2023-02-17T05:56:23;64.20;;;30.67;;
53151;SDS011;39234;53.158;6.322;2023-02-17T05:58:49;58.67;;;31.58;;
53151;SDS011;39234;53.158;6.322;2023-02-17T06:01:15;64.00;;;30.52;;
53151;SDS011;39234;53.158;6.322;2023-02-17T06:03:40;63.75;;;31.25;;
53151;SDS011;39234;53.158;6.322;2023-02-17T06:06:06;62.47;;;31.55;;
53151;SDS011;39234;53.158;6.322;2023-02-17T06:08:32;68.80;;;32.47;;
53151;SDS011;39234;53.158;6.322;2023-02-17T06:10:59;63.42;;;31.77;;
53151;SDS011;39234;53.158;6.322;2023-02-17T06:13:25;63.75;;;31.48;;
53151;SDS011;39234;53.158;6.322;2023-02-17T06:15:50;62.40;;;31.92;;
53151;SDS011;39234;53.158;6.322;2023-02-17T06:18:16;57.33;;;31.25;;
53151;SDS011;39234;53.158;6.322;2023-02-17T06:20:42;66.22;;;32.30;;
53151;SDS011;39234;53.158;6.322;2023-02-17T06:23:07;61.60;;;30.45;;
53151;SDS011;39234;53.158;6.322;2023-02-17T06:25:33;63.95;;;33.67;;
53151;SDS011;39234;53.158;6.322;2023-02-17T06:27:59;64.72;;;33.60;;
53151;SDS011;39234;53.158;6.322;2023-02-17T06:30:25;65.00;;;33.80;;
53151;SDS011;39234;53.158;6.322;2023-02-17T06:32:51;72.32;;;33.70;;
53151;SDS011;39234;53.158;6.322;2023-02-17T06:35:16;67.63;;;32.92;;
53151;SDS011;39234;53.158;6.322;2023-02-17T06:37:42;66.05;;;34.13;;
53151;SDS011;39234;53.158;6.322;2023-02-17T06:40:08;63.42;;;32.78;;
53151;SDS011;39234;53.158;6.322;2023-02-17T06:42:35;68.03;;;34.13;;
53151;SDS011;39234;53.158;6.322;2023-02-17T06:45:00;69.32;;;36.03;;
53151;SDS011;39234;53.158;6.322;2023-02-17T06:47:30;69.53;;;34.28;;
53151;SDS011;39234;53.158;6.322;2023-02-17T06:49:57;66.97;;;33.92;;
53151;SDS011;39234;53.158;6.322;2023-02-17T06:52:22;66.95;;;32.88;;
53151;SDS011;39234;53.158;6.322;2023-02-17T06:54:48;73.07;;;34.15;;
53151;SDS011;39234;53.158;6.322;2023-02-17T06:57:14;65.93;;;33.22;;
53151;SDS011;39234;53.158;6.322;2023-02-17T06:59:40;71.90;;;34.15;;
53151;SDS011;39234;53.158;6.322;2023-02-17T07:02:06;71.35;;;32.63;;
53151;SDS011;39234;53.158;6.322;2023-02-17T07:04:38;76.43;;;32.92;;
53151;SDS011;39234;53.158;6.322;2023-02-17T07:07:05;68.75;;;33.80;;
53151;SDS011;39234;53.158;6.322;2023-02-17T07:09:31;71.65;;;31.83;;
53151;SDS011;39234;53.158;6.322;2023-02-17T07:11:57;73.05;;;32.53;;
53151;SDS011;39234;53.158;6.322;2023-02-17T07:14:24;65.55;;;32.00;;
53151;SDS011;39234;53.158;6.322;2023-02-17T07:16:50;73.50;;;32.35;;
53151;SDS011;39234;53.158;6.322;2023-02-17T07:19:16;78.28;;;34.00;;
53151;SDS011;39234;53.158;6.322;2023-02-17T07:21:43;69.70;;;32.80;;
53151;SDS011;39234;53.158;6.322;2023-02-17T07:24:08;71.55;;;32.47;;
53151;SDS011;39234;53.158;6.322;2023-02-17T07:26:38;77.18;;;31.92;;
53151;SDS011;39234;53.158;6.322;2023-02-17T07:29:04;79.03;;;32.65;;
53151;SDS011;39234;53.158;6.322;2023-02-17T07:31:31;75.07;;;32.00;;
53151;SDS011;39234;53.158;6.322;2023-02-17T07:33:59;78.10;;;31.55;;
53151;SDS011;39234;53.158;6.322;2023-02-17T07:36:26;67.57;;;31.75;;
53151;SDS011;39234;53.158;6.322;2023-02-17T07:38:51;81.80;;;32.53;;
53151;SDS011;39234;53.158;6.322;2023-02-17T07:41:19;69.82;;;31.80;;
53151;SDS011;39234;53.158;6.322;2023-02-17T07:43:47;79.60;;;32.22;;
53151;SDS011;39234;53.158;6.322;2023-02-17T07:46:13;67.55;;;31.00;;
53151;SDS011;39234;53.158;6.322;2023-02-17T07:48:39;61.80;;;30.35;;
53151;SDS011;39234;53.158;6.322;2023-02-17T07:51:06;74.97;;;30.70;;
53151;SDS011;39234;53.158;6.322;2023-02-17T07:53:44;63.35;;;29.67;;
53151;SDS011;39234;53.158;6.322;2023-02-17T07:56:11;66.32;;;28.58;;
53151;SDS011;39234;53.158;6.322;2023-02-17T07:58:39;65.78;;;28.77;;
53151;SDS011;39234;53.158;6.322;2023-02-17T08:01:07;60.10;;;28.05;;
53151;SDS011;39234;53.158;6.322;2023-02-17T08:03:34;61.83;;;28.77;;
53151;SDS011;39234;53.158;6.322;2023-02-17T08:06:00;67.25;;;28.50;;
53151;SDS011;39234;53.158;6.322;2023-02-17T08:08:27;58.88;;;25.83;;
53151;SDS011;39234;53.158;6.322;2023-02-17T08:11:12;60.15;;;27.42;;
53151;SDS011;39234;53.158;6.322;2023-02-17T08:13:58;57.17;;;26.35;;
53151;SDS011;39234;53.158;6.322;2023-02-17T08:16:24;46.53;;;24.98;;
53151;SDS011;39234;53.158;6.322;2023-02-17T08:18:53;52.08;;;25.85;;
53151;SDS011;39234;53.158;6.322;2023-02-17T08:21:23;53.40;;;25.35;;
53151;SDS011;39234;53.158;6.322;2023-02-17T08:23:50;45.25;;;24.35;;
53151;SDS011;39234;53.158;6.322;2023-02-17T08:26:15;57.38;;;24.40;;
53151;SDS011;39234;53.158;6.322;2023-02-17T08:28:42;47.60;;;24.00;;
53151;SDS011;39234;53.158;6.322;2023-02-17T08:31:19;50.28;;;24.88;;
53151;SDS011;39234;53.158;6.322;2023-02-17T08:33:46;48.85;;;23.05;;
53151;SDS011;39234;53.158;6.322;2023-02-17T08:36:12;43.97;;;22.85;;
53151;SDS011;39234;53.158;6.322;2023-02-17T08:38:38;48.17;;;23.02;;
53151;SDS011;39234;53.158;6.322;2023-02-17T08:41:11;47.00;;;21.35;;
53151;SDS011;39234;53.158;6.322;2023-02-17T08:43:43;46.08;;;20.17;;
53151;SDS011;39234;53.158;6.322;2023-02-17T08:46:09;40.05;;;19.17;;
53151;SDS011;39234;53.158;6.322;2023-02-17T08:48:35;40.47;;;19.30;;
53151;SDS011;39234;53.158;6.322;2023-02-17T08:51:01;41.60;;;18.55;;
53151;SDS011;39234;53.158;6.322;2023-02-17T08:53:27;39.83;;;17.95;;
53151;SDS011;39234;53.158;6.322;2023-02-17T08:55:53;40.25;;;17.67;;
53151;SDS011;39234;53.158;6.322;2023-02-17T08:58:19;37.45;;;17.00;;
53151;SDS011;39234;53.158;6.322;2023-02-17T09:00:45;35.03;;;16.50;;
53151;SDS011;39234;53.158;6.322;2023-02-17T09:03:11;36.45;;;15.77;;
53151;SDS011;39234;53.158;6.322;2023-02-17T09:05:36;31.38;;;15.57;;
53151;SDS011;39234;53.158;6.322;2023-02-17T09:08:02;36.95;;;15.07;;
53151;SDS011;39234;53.158;6.322;2023-02-17T09:10:28;34.42;;;15.05;;
53151;SDS011;39234;53.158;6.322;2023-02-17T09:12:54;32.67;;;13.05;;
53151;SDS011;39234;53.158;6.322;2023-02-17T09:15:20;28.45;;;13.70;;
53151;SDS011;39234;53.158;6.322;2023-02-17T09:17:46;30.77;;;12.80;;
53151;SDS011;39234;53.158;6.322;2023-02-17T09:20:12;28.67;;;13.63;;
53151;SDS011;39234;53.158;6.322;2023-02-17T09:22:37;31.63;;;12.40;;
53151;SDS011;39234;53.158;6.322;2023-02-17T09:25:03;27.80;;;12.63;;
53151;SDS011;39234;53.158;6.322;2023-02-17T09:27:29;30.50;;;11.98;;
53151;SDS011;39234;53.158;6.322;2023-02-17T09:29:56;26.95;;;12.60;;
53151;SDS011;39234;53.158;6.322;2023-02-17T09:32:22;23.88;;;12.07;;
53151;SDS011;39234;53.158;6.322;2023-02-17T09:34:48;25.70;;;11.52;;
53151;SDS011;39234;53.158;6.322;2023-02-17T09:37:17;24.75;;;11.20;;
53151;SDS011;39234;53.158;6.322;2023-02-17T09:39:43;26.30;;;10.13;;
53151;SDS011;39234;53.158;6.322;2023-02-17T09:42:17;21.42;;;10.85;;
53151;SDS011;39234;53.158;6.322;2023-02-17T09:44:58;26.40;;;9.98;;
53151;SDS011;39234;53.158;6.322;2023-02-17T09:47:38;23.52;;;10.65;;
53151;SDS011;39234;53.158;6.322;2023-02-17T09:50:10;20.70;;;8.77;;
53151;SDS011;39234;53.158;6.322;2023-02-17T09:55:17;21.77;;;8.18;;
53151;SDS011;39234;53.158;6.322;2023-02-17T09:57:55;18.00;;;7.47;;
53151;SDS011;39234;53.158;6.322;2023-02-17T10:00:34;17.40;;;7.28;;
53151;SDS011;39234;53.158;6.322;2023-02-17T10:03:12;18.35;;;7.43;;
53151;SDS011;39234;53.158;6.322;2023-02-17T10:05:52;19.13;;;7.70;;
53151;SDS011;39234;53.158;6.322;2023-02-17T10:09:23;16.33;;;6.78;;
53151;SDS011;39234;53.158;6.322;2023-02-17T10:14:30;21.38;;;8.07;;
53151;SDS011;39234;53.158;6.322;2023-02-17T10:17:12;22.60;;;8.20;;
53151;SDS011;39234;53.158;6.322;2023-02-17T10:19:52;18.83;;;7.35;;
53151;SDS011;39234;53.158;6.322;2023-02-17T10:22:26;22.15;;;7.90;;
53151;SDS011;39234;53.158;6.322;2023-02-17T10:24:54;17.63;;;7.20;;
53151;SDS011;39234;53.158;6.322;2023-02-17T10:27:27;18.55;;;6.68;;
53151;SDS011;39234;53.158;6.322;2023-02-17T10:30:03;20.15;;;7.20;;
53151;SDS011;39234;53.158;6.322;2023-02-17T10:33:11;18.52;;;6.90;;
53151;SDS011;39234;53.158;6.322;2023-02-17T10:35:49;17.77;;;6.70;;
53151;SDS011;39234;53.158;6.322;2023-02-17T10:38:48;15.18;;;6.38;;
53151;SDS011;39234;53.158;6.322;2023-02-17T10:41:20;16.58;;;6.85;;
53151;SDS011;39234;53.158;6.322;2023-02-17T10:43:50;17.75;;;6.93;;
53151;SDS011;39234;53.158;6.322;2023-02-17T10:46:18;21.50;;;6.00;;
53151;SDS011;39234;53.158;6.322;2023-02-17T10:48:51;19.45;;;6.00;;
53151;SDS011;39234;53.158;6.322;2023-02-17T10:51:23;16.55;;;5.85;;
53151;SDS011;39234;53.158;6.322;2023-02-17T10:53:51;18.77;;;6.50;;
53151;SDS011;39234;53.158;6.322;2023-02-17T10:56:47;16.50;;;6.40;;
53151;SDS011;39234;53.158;6.322;2023-02-17T10:59:23;16.90;;;7.00;;
53151;SDS011;39234;53.158;6.322;2023-02-17T11:02:13;17.83;;;5.63;;
53151;SDS011;39234;53.158;6.322;2023-02-17T11:04:47;15.98;;;5.20;;
53151;SDS011;39234;53.158;6.322;2023-02-17T11:07:15;21.33;;;5.88;;
53151;SDS011;39234;53.158;6.322;2023-02-17T11:09:50;21.25;;;7.22;;
53151;SDS011;39234;53.158;6.322;2023-02-17T11:12:21;16.95;;;4.80;;
53151;SDS011;39234;53.158;6.322;2023-02-17T11:14:51;18.13;;;4.95;;
53151;SDS011;39234;53.158;6.322;2023-02-17T11:17:27;15.93;;;4.80;;
53151;SDS011;39234;53.158;6.322;2023-02-17T11:20:42;11.10;;;4.25;;
53151;SDS011;39234;53.158;6.322;2023-02-17T11:25:32;15.77;;;4.13;;
53151;SDS011;39234;53.158;6.322;2023-02-17T11:28:01;15.55;;;4.35;;
53151;SDS011;39234;53.158;6.322;2023-02-17T11:30:49;16.58;;;3.80;;
53151;SDS011;39234;53.158;6.322;2023-02-17T11:33:22;19.83;;;4.75;;
53151;SDS011;39234;53.158;6.322;2023-02-17T11:35:58;14.30;;;4.17;;
53151;SDS011;39234;53.158;6.322;2023-02-17T11:38:26;11.73;;;3.50;;
53151;SDS011;39234;53.158;6.322;2023-02-17T11:41:00;14.32;;;3.75;;
53151;SDS011;39234;53.158;6.322;2023-02-17T11:43:29;14.20;;;3.22;;
53151;SDS011;39234;53.158;6.322;2023-02-17T11:57:29;15.60;;;3.47;;
53151;SDS011;39234;53.158;6.322;2023-02-17T12:00:13;15.38;;;3.13;;
53151;SDS011;39234;53.158;6.322;2023-02-17T12:11:12;9.50;;;2.55;;
53151;SDS011;39234;53.158;6.322;2023-02-17T12:13:58;16.25;;;2.47;;
53151;SDS011;39234;53.158;6.322;2023-02-17T12:19:40;19.30;;;3.35;;
53151;SDS011;39234;53.158;6.322;2023-02-17T12:35:55;9.93;;;1.92;;
53151;SDS011;39234;53.158;6.322;2023-02-17T12:38:26;12.00;;;2.55;;
53151;SDS011;39234;53.158;6.322;2023-02-17T12:41:04;12.80;;;2.13;;
53151;SDS011;39234;53.158;6.322;2023-02-17T12:46:26;12.68;;;2.45;;
53151;SDS011;39234;53.158;6.322;2023-02-17T12:54:53;10.48;;;2.30;;
53151;SDS011;39234;53.158;6.322;2023-02-17T13:00:05;14.02;;;2.40;;
53151;SDS011;39234;53.158;6.322;2023-02-17T13:02:41;13.23;;;2.40;;
53151;SDS011;39234;53.158;6.322;2023-02-17T13:05:12;16.10;;;3.25;;
53151;SDS011;39234;53.158;6.322;2023-02-17T13:07:58;12.00;;;3.40;;
53151;SDS011;39234;53.158;6.322;2023-02-17T13:10:38;15.45;;;2.40;;
53151;SDS011;39234;53.158;6.322;2023-02-17T13:15:45;9.75;;;2.45;;
53151;SDS011;39234;53.158;6.322;2023-02-17T13:23:26;12.15;;;2.72;;
53151;SDS011;39234;53.158;6.322;2023-02-17T13:28:47;12.88;;;2.60;;
53151;SDS011;39234;53.158;6.322;2023-02-17T13:31:20;15.88;;;2.90;;
53151;SDS011;39234;53.158;6.322;2023-02-17T13:33:55;16.38;;;2.70;;
53151;SDS011;39234;53.158;6.322;2023-02-17T13:39:01;11.38;;;2.53;;
53151;SDS011;39234;53.158;6.322;2023-02-17T13:41:46;10.05;;;2.78;;
53151;SDS011;39234;53.158;6.322;2023-02-17T13:46:56;13.02;;;3.17;;
53151;SDS011;39234;53.158;6.322;2023-02-17T13:49:50;16.80;;;2.85;;
53151;SDS011;39234;53.158;6.322;2023-02-17T13:52:21;16.10;;;2.47;;
53151;SDS011;39234;53.158;6.322;2023-02-17T13:54:55;15.45;;;2.90;;
53151;SDS011;39234;53.158;6.322;2023-02-17T13:57:29;12.98;;;3.08;;
53151;SDS011;39234;53.158;6.322;2023-02-17T14:00:15;15.00;;;3.33;;
53151;SDS011;39234;53.158;6.322;2023-02-17T14:03:04;17.67;;;3.50;;
53151;SDS011;39234;53.158;6.322;2023-02-17T14:05:51;15.98;;;2.75;;
53151;SDS011;39234;53.158;6.322;2023-02-17T14:10:46;13.55;;;2.83;;
53151;SDS011;39234;53.158;6.322;2023-02-17T14:13:12;13.05;;;2.72;;
53151;SDS011;39234;53.158;6.322;2023-02-17T14:15:51;12.82;;;2.65;;
53151;SDS011;39234;53.158;6.322;2023-02-17T14:18:29;19.33;;;3.00;;
53151;SDS011;39234;53.158;6.322;2023-02-17T14:21:03;17.23;;;2.80;;
53151;SDS011;39234;53.158;6.322;2023-02-17T14:23:43;17.10;;;3.08;;
53151;SDS011;39234;53.158;6.322;2023-02-17T14:28:51;20.70;;;4.18;;
53151;SDS011;39234;53.158;6.322;2023-02-17T14:31:22;14.38;;;3.60;;
53151;SDS011;39234;53.158;6.322;2023-02-17T14:33:58;20.73;;;3.28;;
53151;SDS011;39234;53.158;6.322;2023-02-17T14:38:55;17.33;;;3.20;;
53151;SDS011;39234;53.158;6.322;2023-02-17T14:41:21;11.82;;;2.50;;
53151;SDS011;39234;53.158;6.322;2023-02-17T14:43:47;15.18;;;3.40;;
53151;SDS011;39234;53.158;6.322;2023-02-17T14:46:13;12.30;;;2.70;;
53151;SDS011;39234;53.158;6.322;2023-02-17T14:48:43;13.10;;;3.45;;
53151;SDS011;39234;53.158;6.322;2023-02-17T14:51:19;14.73;;;2.83;;
53151;SDS011;39234;53.158;6.322;2023-02-17T14:53:46;19.23;;;3.42;;
53151;SDS011;39234;53.158;6.322;2023-02-17T14:58:48;17.17;;;2.83;;
53151;SDS011;39234;53.158;6.322;2023-02-17T15:01:15;15.07;;;3.08;;
53151;SDS011;39234;53.158;6.322;2023-02-17T15:03:42;16.23;;;2.83;;
53151;SDS011;39234;53.158;6.322;2023-02-17T15:06:13;18.27;;;2.80;;
53151;SDS011;39234;53.158;6.322;2023-02-17T15:08:44;20.58;;;3.13;;
53151;SDS011;39234;53.158;6.322;2023-02-17T15:11:34;18.42;;;2.78;;
53151;SDS011;39234;53.158;6.322;2023-02-17T15:14:01;16.90;;;2.60;;
53151;SDS011;39234;53.158;6.322;2023-02-17T15:16:27;15.48;;;2.58;;
53151;SDS011;39234;53.158;6.322;2023-02-17T15:18:53;15.07;;;3.25;;
53151;SDS011;39234;53.158;6.322;2023-02-17T15:21:26;16.15;;;2.38;;
53151;SDS011;39234;53.158;6.322;2023-02-17T15:23:55;14.80;;;2.60;;
53151;SDS011;39234;53.158;6.322;2023-02-17T15:26:22;13.27;;;2.65;;
53151;SDS011;39234;53.158;6.322;2023-02-17T15:28:48;12.68;;;2.08;;
53151;SDS011;39234;53.158;6.322;2023-02-17T15:31:15;18.38;;;2.42;;
53151;SDS011;39234;53.158;6.322;2023-02-17T15:33:42;14.80;;;2.53;;
53151;SDS011;39234;53.158;6.322;2023-02-17T15:36:14;12.35;;;2.70;;
53151;SDS011;39234;53.158;6.322;2023-02-17T15:38:41;15.88;;;2.60;;
53151;SDS011;39234;53.158;6.322;2023-02-17T15:41:14;16.27;;;2.83;;
53151;SDS011;39234;53.158;6.322;2023-02-17T15:43:46;20.75;;;2.90;;
53151;SDS011;39234;53.158;6.322;2023-02-17T15:46:14;15.07;;;2.97;;
53151;SDS011;39234;53.158;6.322;2023-02-17T15:48:45;16.55;;;3.22;;
53151;SDS011;39234;53.158;6.322;2023-02-17T15:51:15;15.02;;;2.17;;
53151;SDS011;39234;53.158;6.322;2023-02-17T15:53:43;19.48;;;3.10;;
53151;SDS011;39234;53.158;6.322;2023-02-17T15:56:11;13.48;;;2.50;;
53151;SDS011;39234;53.158;6.322;2023-02-17T15:58:48;20.05;;;2.80;;
53151;SDS011;39234;53.158;6.322;2023-02-17T16:03:56;15.88;;;2.53;;
53151;SDS011;39234;53.158;6.322;2023-02-17T16:06:23;15.20;;;2.63;;
53151;SDS011;39234;53.158;6.322;2023-02-17T16:08:49;15.18;;;2.88;;
53151;SDS011;39234;53.158;6.322;2023-02-17T16:11:15;19.63;;;4.05;;
53151;SDS011;39234;53.158;6.322;2023-02-17T16:13:44;19.38;;;3.67;;
53151;SDS011;39234;53.158;6.322;2023-02-17T16:16:18;14.80;;;2.95;;
53151;SDS011;39234;53.158;6.322;2023-02-17T16:18:46;16.60;;;3.05;;
53151;SDS011;39234;53.158;6.322;2023-02-17T16:21:13;17.58;;;3.45;;
53151;SDS011;39234;53.158;6.322;2023-02-17T16:23:39;19.23;;;3.80;;
53151;SDS011;39234;53.158;6.322;2023-02-17T16:26:11;18.38;;;2.67;;
53151;SDS011;39234;53.158;6.322;2023-02-17T16:28:48;14.70;;;3.20;;
53151;SDS011;39234;53.158;6.322;2023-02-17T16:31:14;13.05;;;2.08;;
53151;SDS011;39234;53.158;6.322;2023-02-17T16:33:40;19.67;;;2.72;;